Time;durP1;ratioP1;P1;durP2;ratioP2;P2;SDS_P1;SDS_P2;PMS_P1;PMS_P2;Temp;Humidity;BMP_temperature;BMP_pressure;BME280_temperature;BME280_humidity;BME280_pressure;Samples;Min_cycle;Max_cycle;Signal;HPM_P1;HPM_P2
2022/11/22 00:01:10;;;;;;;10.48;2.75;;;8.30;99.90;;;;;;5006364;28;20042;-90
2022/11/22 00:03:36;;;;;;;10.82;2.90;;;;;;;;;;5003269;28;20034;-86
2022/11/22 00:06:02;;;;;;;13.90;2.70;;;;;;;;;;5005205;28;20015;-88
2022/11/22 00:08:28;;;;;;;7.32;2.00;;;;;;;;;;4982232;28;20023;-87
2022/11/22 00:10:54;;;;;;;11.77;2.20;;;;;;;;;;4968157;28;20023;-89
2022/11/22 00:13:20;;;;;;;10.55;2.22;;;;;;;;;;4977606;28;20042;-86
2022/11/22 00:15:57;;;;;;;13.27;2.55;;;8.30;99.90;;;;;;4966714;28;20031;-86
2022/11/22 00:18:23;;;;;;;9.85;2.92;;;;;;;;;;4954357;28;20031;-87
2022/11/22 00:20:49;;;;;;;11.15;2.13;;;;;;;;;;4987907;28;20034;-87
2022/11/22 00:23:15;;;;;;;13.98;2.88;;;8.30;99.90;;;;;;4980643;28;20019;-85
2022/11/22 00:25:41;;;;;;;15.07;2.65;;;;;;;;;;4970057;28;20022;-86
2022/11/22 00:28:07;;;;;;;16.33;3.13;;;;;;;;;;4992359;28;20031;-86
2022/11/22 00:30:33;;;;;;;13.15;2.60;;;;;;;;;;4965009;28;20030;-85
2022/11/22 00:32:59;;;;;;;17.00;3.38;;;;;;;;;;4975709;28;20038;-87
2022/11/22 00:35:24;;;;;;;11.63;2.90;;;8.40;99.90;;;;;;4968706;28;20043;-87
2022/11/22 00:37:50;;;;;;;13.45;2.70;;;;;;;;;;4970095;28;20015;-84
2022/11/22 00:40:16;;;;;;;14.07;2.40;;;;;;;;;;4984102;28;20014;-85
2022/11/22 00:42:42;;;;;;;15.38;3.03;;;8.40;99.90;;;;;;4984798;28;20031;-86
2022/11/22 00:45:08;;;;;;;12.80;2.97;;;;;;;;;;4985252;28;20041;-85
2022/11/22 00:47:34;;;;;;;13.05;2.58;;;;;;;;;;4966578;28;20012;-85
2022/11/22 00:50:00;;;;;;;12.85;2.58;;;;;;;;;;4967665;28;20035;-87
2022/11/22 00:52:26;;;;;;;17.38;2.60;;;8.30;99.90;;;;;;4962556;28;20031;-89
2022/11/22 00:54:52;;;;;;;12.63;3.30;;;;;;;;;;4971719;28;20026;-84
2022/11/22 00:57:18;;;;;;;10.70;2.40;;;;;;;;;;4975220;28;20039;-87
2022/11/22 00:59:44;;;;;;;17.20;2.97;;;;;;;;;;4972692;28;20077;-85
2022/11/22 01:02:10;;;;;;;14.75;2.83;;;;;;;;;;4958262;28;20042;-85
2022/11/22 01:04:36;;;;;;;16.05;3.17;;;;;;;;;;4964869;28;20039;-83
2022/11/22 01:07:02;;;;;;;15.43;3.38;;;8.30;99.90;;;;;;4964417;28;20493;-85
2022/11/22 01:09:28;;;;;;;20.95;3.63;;;8.30;99.90;;;;;;4980025;28;20094;-87
2022/11/22 01:11:54;;;;;;;15.02;2.13;;;;;;;;;;4977261;28;20027;-84
2022/11/22 01:14:20;;;;;;;12.82;2.60;;;;;;;;;;4963402;28;20041;-86
2022/11/22 01:16:46;;;;;;;19.90;2.78;;;8.30;99.90;;;;;;4989147;28;20014;-89
2022/11/22 01:19:13;;;;;;;16.90;3.25;;;8.30;99.90;;;;;;4988634;28;20047;-90
2022/11/22 01:21:39;;;;;;;14.25;2.90;;;;;;;;;;4974402;28;20031;-85
2022/11/22 01:24:05;;;;;;;18.90;3.50;;;;;;;;;;4960030;28;20027;-87
2022/11/22 01:26:32;;;;;;;18.73;2.90;;;8.30;99.90;;;;;;4959401;28;20027;-86
2022/11/22 01:28:57;;;;;;;15.00;2.78;;;8.30;99.90;;;;;;4984701;28;20027;-85
2022/11/22 01:31:23;;;;;;;17.73;2.83;;;;;;;;;;4984253;28;20015;-87
2022/11/22 01:33:49;;;;;;;16.00;2.95;;;;;;;;;;4988350;28;20027;-86
2022/11/22 01:36:15;;;;;;;15.02;2.50;;;;;;;;;;4986882;28;20090;-87
2022/11/22 01:38:41;;;;;;;15.27;2.75;;;;;;;;;;4969270;28;20031;-83
2022/11/22 01:41:07;;;;;;;13.93;2.15;;;;;;;;;;4964076;28;20046;-84
2022/11/22 01:43:33;;;;;;;17.05;2.40;;;8.20;99.90;;;;;;4969132;28;20053;-86
2022/11/22 01:46:30;;;;;;;13.57;2.35;;;11.10;99.90;;;;;;4961544;28;20276;-86
2022/11/22 01:49:02;;;;;;;21.05;2.92;;;8.30;99.90;;;;;;4970818;28;20027;-87
2022/11/22 01:51:39;;;;;;;11.43;2.50;;;8.30;99.90;;;;;;4981990;28;20099;-88
2022/11/22 01:54:14;;;;;;;15.23;2.55;;;8.30;99.90;;;;;;4980770;28;20079;-86
2022/11/22 01:56:43;;;;;;;18.15;2.38;;;8.20;99.90;;;;;;4986769;28;20035;-88
2022/11/22 01:59:12;;;;;;;13.30;2.90;;;8.30;99.90;;;;;;4960690;28;20074;-86
2022/11/22 02:01:38;;;;;;;15.52;2.38;;;;;;;;;;4971899;28;20475;-86
2022/11/22 02:04:07;;;;;;;17.33;2.72;;;8.10;99.90;;;;;;4974535;28;20031;-89
2022/11/22 02:06:45;;;;;;;11.85;2.45;;;8.20;99.90;;;;;;4978924;28;20018;-88
2022/11/22 02:09:18;;;;;;;13.75;2.35;;;8.20;99.90;;;;;;5047658;23;20069;-83
2022/11/22 02:11:51;;;;;;;11.27;2.30;;;8.50;99.90;;;;;;5020887;28;20037;-83
2022/11/22 02:14:24;;;;;;;14.48;2.88;;;8.20;99.90;;;;;;5027107;28;20056;-84
2022/11/22 02:16:51;;;;;;;16.15;2.17;;;;;;;;;;5025843;28;20026;-83
2022/11/22 02:19:44;;;;;;;14.93;2.85;;;8.10;99.90;;;;;;5013604;28;20032;-83
2022/11/22 02:22:29;;;;;;;13.50;2.38;;;8.10;99.90;;;;;;5022054;28;20026;-83
2022/11/22 02:25:13;;;;;;;14.43;2.70;;;8.10;99.90;;;;;;5017893;28;20034;-83
2022/11/22 02:27:39;;;;;;;14.20;2.63;;;;;;;;;;5013370;28;20103;-84
2022/11/22 02:30:06;;;;;;;15.93;2.58;;;;;;;;;;5019639;28;20065;-84
2022/11/22 02:32:38;;;;;;;17.85;2.45;;;7.90;99.90;;;;;;5036145;28;20077;-87
2022/11/22 02:35:18;;;;;;;18.05;2.70;;;8.00;99.90;;;;;;5042686;28;20053;-85
2022/11/22 02:37:46;;;;;;;13.45;2.30;;;7.90;99.90;;;;;;5003205;28;20018;-83
2022/11/22 02:40:17;;;;;;;12.85;2.20;;;7.90;99.90;;;;;;5017492;28;20026;-84
2022/11/22 02:42:50;;;;;;;19.63;3.83;;;7.90;99.90;;;;;;4998980;28;20040;-84
2022/11/22 02:45:17;;;;;;;12.93;2.42;;;;;;;;;;5011251;28;20121;-83
2022/11/22 02:47:43;;;;;;;17.05;2.42;;;;;;;;;;5000321;28;20033;-84
2022/11/22 02:50:10;;;;;;;18.33;2.90;;;7.90;99.90;;;;;;5008012;28;20058;-84
2022/11/22 02:52:38;;;;;;;12.23;1.80;;;;;;;;;;5021518;28;20125;-83
2022/11/22 02:55:05;;;;;;;11.20;2.15;;;7.80;99.90;;;;;;4991326;28;20398;-84
2022/11/22 02:57:31;;;;;;;17.08;2.17;;;;;;;;;;5020065;28;20407;-83
2022/11/22 02:59:59;;;;;;;11.38;1.98;;;7.70;99.90;;;;;;5021904;28;20677;-83
2022/11/22 03:02:25;;;;;;;17.23;2.67;;;;;;;;;;5015897;28;20037;-83
2022/11/22 03:04:52;;;;;;;11.50;1.98;;;;;;;;;;4994608;28;20048;-83
2022/11/22 03:07:19;;;;;;;10.55;2.10;;;;;;;;;;5007029;28;20025;-83
2022/11/22 03:09:46;;;;;;;13.32;2.10;;;;;;;;;;5014583;28;20026;-83
2022/11/22 03:12:13;;;;;;;13.25;2.28;;;;;;;;;;5029975;28;20036;-87
2022/11/22 03:15:00;;;;;;;10.40;2.15;;;7.60;99.90;;;;;;5031974;28;20460;-85
2022/11/22 03:17:27;;;;;;;10.45;2.10;;;;;;;;;;5040840;28;20026;-82
2022/11/22 03:19:55;;;;;;;13.30;2.20;;;7.60;99.90;;;;;;5042193;28;20026;-86
2022/11/22 03:22:21;;;;;;;15.98;2.03;;;;;;;;;;5014906;28;20061;-82
2022/11/22 03:24:51;;;;;;;16.73;2.60;;;7.30;99.90;;;;;;5000883;28;20026;-82
2022/11/22 03:27:18;;;;;;;11.18;2.08;;;;;;;;;;5009424;28;20037;-82
2022/11/22 03:29:45;;;;;;;9.43;1.95;;;7.60;99.90;;;;;;5012806;28;20048;-82
2022/11/22 03:32:13;;;;;;;16.63;2.10;;;7.60;99.90;;;;;;5014370;28;20080;-82
2022/11/22 03:34:39;;;;;;;14.98;2.33;;;;;;;;;;4988545;28;20437;-83
2022/11/22 03:37:05;;;;;;;11.23;2.30;;;;;;;;;;5004369;28;20060;-84
2022/11/22 03:39:32;;;;;;;9.23;1.92;;;;;;;;;;5019863;28;20109;-82
2022/11/22 03:41:58;;;;;;;13.98;2.78;;;;;;;;;;5013160;28;20045;-82
2022/11/22 03:44:25;;;;;;;13.40;2.33;;;;;;;;;;5012321;28;20040;-82
2022/11/22 03:46:51;;;;;;;10.45;1.95;;;;;;;;;;5003901;28;20037;-85
2022/11/22 03:49:18;;;;;;;17.33;2.20;;;;;;;;;;5000824;28;20541;-82
2022/11/22 03:51:45;;;;;;;11.38;2.55;;;;;;;;;;4999454;28;20033;-82
2022/11/22 03:54:11;;;;;;;11.80;2.10;;;;;;;;;;5006940;28;20101;-82
2022/11/22 03:56:38;;;;;;;7.80;1.58;;;;;;;;;;4999524;28;20056;-83
2022/11/22 03:59:05;;;;;;;10.50;1.83;;;;;;;;;;4998539;28;20045;-83
2022/11/22 04:01:32;;;;;;;9.30;1.88;;;;;;;;;;5004958;28;20048;-84
2022/11/22 04:03:59;;;;;;;12.55;2.55;;;;;;;;;;4983664;28;20037;-83
2022/11/22 04:06:25;;;;;;;9.38;2.40;;;;;;;;;;5002071;28;20035;-84
2022/11/22 04:08:52;;;;;;;9.50;1.95;;;;;;;;;;5003573;28;20083;-83
2022/11/22 04:11:19;;;;;;;8.00;2.13;;;;;;;;;;5009744;28;20188;-84
2022/11/22 04:16:30;;;;;;;8.57;2.28;;;;;;;;;;5009816;28;20533;-85
2022/11/22 04:18:57;;;;;;;7.75;1.90;;;;;;;;;;5008944;28;20036;-84
2022/11/22 04:21:34;;;;;;;9.07;2.50;;;;;;;;;;5010028;28;20030;-82
2022/11/22 04:27:14;;;;;;;10.32;1.60;;;7.20;99.90;;;;;;5018779;28;20045;-82
2022/11/22 04:29:42;;;;;;;7.90;1.98;;;7.20;99.90;;;;;;4997431;28;20509;-83
2022/11/22 04:34:54;;;;;;;12.95;1.90;;;;;;;;;;5015943;28;20460;-85
2022/11/22 04:37:23;;;;;;;15.70;2.30;;;7.20;99.90;;;;;;5015800;28;20034;-85
2022/11/22 04:39:50;;;;;;;10.88;1.90;;;;;;;;;;4983485;28;20042;-83
2022/11/22 04:45:02;;;;;;;8.88;1.88;;;;;;;;;;5021296;28;20049;-83
2022/11/22 04:53:01;;;;;;;11.02;1.95;;;;;;;;;;5001581;28;20119;-83
2022/11/22 04:55:36;;;;;;;11.70;1.70;;;7.30;99.90;;;;;;5021348;28;20057;-83
2022/11/22 04:58:03;;;;;;;8.38;2.45;;;;;;;;;;5001747;28;20493;-83
2022/11/22 05:00:30;;;;;;;9.18;1.42;;;;;;;;;;5004575;28;20505;-83
2022/11/22 05:02:57;;;;;;;8.07;1.90;;;;;;;;;;5020386;28;20013;-86
2022/11/22 05:05:25;;;;;;;12.02;1.65;;;7.30;99.90;;;;;;5004875;28;20097;-85
2022/11/22 05:07:51;;;;;;;10.15;1.73;;;;;;;;;;5026145;28;20058;-83
2022/11/22 05:10:24;;;;;;;9.18;2.00;;;;;;;;;;5014139;28;20025;-83
2022/11/22 05:12:55;;;;;;;11.43;2.30;;;7.30;99.90;;;;;;5003910;28;20034;-83
2022/11/22 05:15:22;;;;;;;10.88;2.00;;;;;;;;;;5003401;28;20030;-84
2022/11/22 05:17:48;;;;;;;13.18;2.10;;;;;;;;;;5016949;28;20042;-84
2022/11/22 05:20:15;;;;;;;10.52;1.80;;;;;;;;;;5026556;28;20109;-83
2022/11/22 05:25:29;;;;;;;9.32;1.95;;;;;;;;;;5026164;28;20048;-83
2022/11/22 05:27:55;;;;;;;12.15;2.20;;;;;;;;;;5002072;28;20026;-84
2022/11/22 05:30:22;;;;;;;11.85;2.25;;;;;;;;;;5016661;28;20085;-85
2022/11/22 06:16:55;;;;;;;9.50;1.98;;;7.10;99.90;;;;;;4954978;28;20313;-81
2022/11/22 06:29:47;;;;;;;8.98;1.85;;;;;;;;;;5017677;23;20061;-81
2022/11/22 06:32:13;;;;;;;8.38;2.17;;;;;;;;;;4995402;28;20026;-82
2022/11/22 06:34:39;;;;;;;14.85;2.10;;;;;;;;;;5011022;28;20028;-80
2022/11/22 06:37:05;;;;;;;13.68;1.90;;;;;;;;;;5011089;28;20054;-82
2022/11/22 06:39:32;;;;;;;11.93;2.08;;;;;;;;;;5010416;28;20046;-80
2022/11/22 06:41:58;;;;;;;7.05;1.45;;;;;;;;;;5002144;28;20037;-81
2022/11/22 06:44:24;;;;;;;9.50;2.30;;;;;;;;;;5010724;28;20076;-81
2022/11/22 06:46:50;;;;;;;6.40;1.77;;;;;;;;;;5018912;28;20112;-80
2022/11/22 06:49:16;;;;;;;9.60;1.77;;;;;;;;;;5017766;28;20026;-81
2022/11/22 06:51:42;;;;;;;9.70;2.40;;;;;;;;;;5014216;28;20026;-82
2022/11/22 06:54:11;;;;;;;9.45;1.92;;;;;;;;;;5002033;28;20049;-80
2022/11/22 06:56:39;;;;;;;12.48;1.92;;;;;;;;;;4997843;28;20026;-82
2022/11/22 06:59:06;;;;;;;7.95;1.92;;;;;;;;;;5024726;28;20025;-81
2022/11/22 07:01:34;;;;;;;11.10;2.50;;;6.60;99.90;;;;;;5021252;28;20033;-81
2022/11/22 08:13:57;;;;;;;10.65;2.10;;;;;;;;;;5024130;28;20041;-88
2022/11/22 08:16:23;;;;;;;10.65;1.70;;;;;;;;;;5028929;28;20033;-87
2022/11/22 08:18:50;;;;;;;8.60;2.55;;;;;;;;;;5014068;28;20033;-91
2022/11/22 08:21:17;;;;;;;7.38;1.90;;;6.40;99.90;;;;;;5009763;28;20029;-87
2022/11/22 08:23:44;;;;;;;14.90;2.33;;;6.50;99.90;;;;;;5022339;28;20034;-88
2022/11/22 08:26:12;;;;;;;8.48;1.80;;;6.60;99.90;;;;;;5018422;28;20034;-86
2022/11/22 08:28:39;;;;;;;10.45;1.73;;;6.60;99.90;;;;;;5000625;28;20026;-84
2022/11/22 08:31:07;;;;;;;10.02;2.20;;;6.70;99.90;;;;;;5016415;28;20080;-86
2022/11/22 08:33:34;;;;;;;8.80;2.25;;;;;;;;;;5005419;28;20053;-90
2022/11/22 08:36:00;;;;;;;6.35;1.60;;;;;;;;;;4993152;28;20038;-86
2022/11/22 08:38:26;;;;;;;6.70;2.03;;;;;;;;;;4982535;28;20038;-86
2022/11/22 08:40:52;;;;;;;13.25;2.00;;;;;;;;;;4990164;28;20030;-85
2022/11/22 08:43:19;;;;;;;9.25;1.90;;;;;;;;;;5025754;28;20038;-84
2022/11/22 08:45:45;;;;;;;8.90;1.92;;;;;;;;;;5000812;28;20042;-89
2022/11/22 08:48:12;;;;;;;11.40;2.88;;;;;;;;;;5012482;28;20010;-88
2022/11/22 08:50:38;;;;;;;5.57;1.83;;;;;;;;;;5004330;28;20557;-88
2022/11/22 08:53:04;;;;;;;10.25;1.75;;;;;;;;;;5010183;28;20022;-84
2022/11/22 08:55:30;;;;;;;11.30;1.92;;;;;;;;;;5012134;28;20026;-85
2022/11/22 08:57:59;;;;;;;11.10;2.10;;;6.90;99.90;;;;;;4999698;28;20022;-86
2022/11/22 09:00:25;;;;;;;10.00;2.15;;;;;;;;;;5004977;28;20053;-84
2022/11/22 09:02:51;;;;;;;7.25;1.50;;;;;;;;;;5021676;28;20033;-86
2022/11/22 09:05:17;;;;;;;10.82;1.90;;;;;;;;;;5001281;28;20077;-84
2022/11/22 09:07:43;;;;;;;7.47;1.67;;;;;;;;;;5011911;28;20495;-89
2022/11/22 09:10:09;;;;;;;10.15;2.13;;;;;;;;;;5017979;28;20010;-86
2022/11/22 09:12:35;;;;;;;6.45;1.70;;;;;;;;;;5008647;28;20448;-85
2022/11/22 09:15:01;;;;;;;8.15;1.73;;;;;;;;;;5002815;28;20036;-85
2022/11/22 09:17:27;;;;;;;5.90;1.50;;;;;;;;;;5002277;28;20041;-86
2022/11/22 09:19:53;;;;;;;6.20;1.98;;;;;;;;;;4999020;28;20010;-85
2022/11/22 09:22:19;;;;;;;10.60;1.80;;;;;;;;;;5023811;28;20017;-86
2022/11/22 09:24:45;;;;;;;8.68;1.70;;;;;;;;;;5022968;28;20041;-85
2022/11/22 09:27:11;;;;;;;7.30;1.52;;;;;;;;;;5018505;28;20023;-88
2022/11/22 09:29:37;;;;;;;4.82;1.50;;;;;;;;;;5025859;28;20026;-84
2022/11/22 09:32:03;;;;;;;8.50;1.50;;;;;;;;;;4997816;28;20610;-85
2022/11/22 09:34:29;;;;;;;5.28;1.67;;;;;;;;;;5017671;28;20026;-85
2022/11/22 09:36:55;;;;;;;9.32;1.60;;;;;;;;;;5008895;28;20034;-87
2022/11/22 09:39:21;;;;;;;8.10;1.63;;;;;;;;;;5007073;28;20022;-87
2022/11/22 09:42:33;;;;;;;6.50;1.63;;;7.50;99.90;;;;;;5026133;28;20076;-87
2022/11/22 09:45:21;;;;;;;11.70;1.80;;;7.50;99.90;;;;;;5014771;28;20034;-85
2022/11/22 09:48:02;;;;;;;6.68;1.30;;;7.50;99.90;;;;;;5023158;28;20038;-88
2022/11/22 09:50:49;;;;;;;10.27;1.58;;;7.70;99.90;;;;;;4999960;28;20121;-88
2022/11/22 09:53:15;;;;;;;8.15;1.75;;;;;;;;;;5011819;28;20026;-86
2022/11/22 09:55:50;;;;;;;5.63;1.38;;;7.90;99.90;;;;;;5015084;28;20057;-84
2022/11/22 09:58:16;;;;;;;5.82;1.60;;;;;;;;;;5002077;28;20057;-87
2022/11/22 10:00:42;;;;;;;8.02;1.92;;;;;;;;;;5025450;28;20078;-85
2022/11/22 10:03:43;;;;;;;8.43;1.60;;;8.10;99.90;;;;;;4997458;28;20203;-86
2022/11/22 10:06:17;;;;;;;7.30;1.40;;;8.20;99.90;;;;;;4995178;28;20089;-86
2022/11/22 10:08:47;;;;;;;5.45;1.35;;;8.10;99.90;;;;;;5011955;28;20041;-86
2022/11/22 10:11:40;;;;;;;7.72;1.60;;;8.20;99.90;;;;;;5011571;28;20094;-88
2022/11/22 10:14:30;;;;;;;5.82;1.30;;;8.20;99.90;;;;;;5004860;28;20026;-88
2022/11/22 10:16:56;;;;;;;5.82;1.30;;;;;;;;;;5010309;28;20094;-86
2022/11/22 10:19:38;;;;;;;7.38;1.60;;;8.40;99.90;;;;;;5006708;28;20038;-89
2022/11/22 10:22:12;;;;;;;6.40;1.00;;;8.50;99.90;;;;;;5003607;28;20039;-89
2022/11/22 10:24:38;;;;;;;8.43;1.63;;;;;;;;;;5003516;28;20022;-85
2022/11/22 10:27:10;;;;;;;9.95;1.30;;;8.60;99.90;;;;;;5021054;28;20026;-90
2022/11/22 10:29:54;;;;;;;9.32;1.75;;;8.70;99.90;;;;;;5003400;28;20010;-86
2022/11/22 10:32:28;;;;;;;5.10;1.30;;;8.70;99.90;;;;;;5025929;28;20038;-88
2022/11/22 10:35:05;;;;;;;5.63;1.13;;;8.90;99.90;;;;;;5008241;28;20023;-86
2022/11/22 10:37:37;;;;;;;4.78;1.55;;;8.80;99.90;;;;;;5002344;28;20034;-86
2022/11/22 10:40:03;;;;;;;5.18;1.30;;;;;;;;;;5020414;28;20025;-88
2022/11/22 10:43:08;;;;;;;5.13;1.58;;;8.90;99.90;;;;;;5020156;28;20018;-88
2022/11/22 10:45:43;;;;;;;7.78;1.77;;;8.90;99.90;;;;;;4959332;28;20046;-88
2022/11/22 11:51:08;;;;;;;4.85;1.50;;;8.60;99.90;;;;;;4888358;29;20053;-86
2022/11/22 12:24:53;;;;;;;6.35;0.90;;;8.80;99.90;;;;;;4887778;29;20055;-84
2022/11/22 12:42:05;;;;;;;1.95;0.70;;;8.50;99.90;;;;;;4874117;29;20039;-86
2022/11/22 20:12:36;;;;;;;13.07;3.15;;;7.50;99.90;;;;;;4998165;28;20109;-83
